sensor_id;sensor_type;location;lat;lon;timestamp;pressure;altitude;pressure_sealevel;temperature;humidity
818;BME280;391;51.052;6.954;2023-05-24T00:00:10;101669.78;;;13.06;57.28
818;BME280;391;51.052;6.954;2023-05-24T00:02:14;101670.56;;;13.03;57.38
818;BME280;391;51.052;6.954;2023-05-24T00:04:20;101653.63;;;12.92;57.60
818;BME280;391;51.052;6.954;2023-05-24T00:06:24;101672.91;;;12.96;57.53
818;BME280;391;51.052;6.954;2023-05-24T00:08:28;101671.81;;;12.89;57.88
818;BME280;391;51.052;6.954;2023-05-24T00:10:32;101677.00;;;12.88;58.04
818;BME280;391;51.052;6.954;2023-05-24T00:12:35;101675.31;;;12.90;57.98
818;BME280;391;51.052;6.954;2023-05-24T00:14:40;101673.34;;;12.83;58.07
818;BME280;391;51.052;6.954;2023-05-24T00:16:44;101666.22;;;12.79;58.30
818;BME280;391;51.052;6.954;2023-05-24T00:18:48;101668.88;;;12.80;58.45
818;BME280;391;51.052;6.954;2023-05-24T00:20:58;101674.19;;;12.82;58.42
818;BME280;391;51.052;6.954;2023-05-24T00:23:01;101650.97;;;12.67;58.32
818;BME280;391;51.052;6.954;2023-05-24T00:25:06;101667.53;;;12.66;58.64
818;BME280;391;51.052;6.954;2023-05-24T00:27:10;101677.72;;;12.58;58.67
818;BME280;391;51.052;6.954;2023-05-24T00:29:16;101677.81;;;12.61;58.87
818;BME280;391;51.052;6.954;2023-05-24T00:31:20;101675.31;;;12.64;58.71
818;BME280;391;51.052;6.954;2023-05-24T00:33:24;101661.88;;;12.54;58.88
818;BME280;391;51.052;6.954;2023-05-24T00:35:31;101668.16;;;12.59;58.94
818;BME280;391;51.052;6.954;2023-05-24T00:37:36;101658.34;;;12.53;58.99
818;BME280;391;51.052;6.954;2023-05-24T00:39:41;101668.06;;;12.57;59.18
818;BME280;391;51.052;6.954;2023-05-24T00:41:47;101674.31;;;12.61;59.23
818;BME280;391;51.052;6.954;2023-05-24T00:43:53;101660.22;;;12.57;59.25
818;BME280;391;51.052;6.954;2023-05-24T00:46:12;101659.19;;;12.52;59.19
818;BME280;391;51.052;6.954;2023-05-24T00:48:19;101668.84;;;12.55;58.96
818;BME280;391;51.052;6.954;2023-05-24T00:50:25;101675.81;;;12.54;59.23
818;BME280;391;51.052;6.954;2023-05-24T00:52:29;101677.59;;;12.55;59.14
818;BME280;391;51.052;6.954;2023-05-24T00:54:34;101676.78;;;12.56;59.07
818;BME280;391;51.052;6.954;2023-05-24T00:56:38;101653.78;;;12.48;59.34
818;BME280;391;51.052;6.954;2023-05-24T00:58:44;101668.94;;;12.56;59.51
818;BME280;391;51.052;6.954;2023-05-24T01:00:48;101664.53;;;12.55;59.29
818;BME280;391;51.052;6.954;2023-05-24T01:02:57;101656.34;;;12.46;59.61
818;BME280;391;51.052;6.954;2023-05-24T01:05:03;101667.81;;;12.50;59.46
818;BME280;391;51.052;6.954;2023-05-24T01:07:13;101667.75;;;12.48;59.34
818;BME280;391;51.052;6.954;2023-05-24T01:09:27;101671.84;;;12.40;59.63
818;BME280;391;51.052;6.954;2023-05-24T01:11:42;101666.63;;;12.42;59.62
818;BME280;391;51.052;6.954;2023-05-24T01:13:56;101666.75;;;12.45;59.89
818;BME280;391;51.052;6.954;2023-05-24T01:16:11;101660.78;;;12.49;59.79
818;BME280;391;51.052;6.954;2023-05-24T01:18:23;101667.13;;;12.55;59.65
818;BME280;391;51.052;6.954;2023-05-24T01:20:33;101650.41;;;12.50;59.64
818;BME280;391;51.052;6.954;2023-05-24T01:23:04;101660.28;;;12.59;59.54
818;BME280;391;51.052;6.954;2023-05-24T01:25:11;101661.69;;;12.49;59.68
818;BME280;391;51.052;6.954;2023-05-24T01:27:20;101649.13;;;12.39;59.74
818;BME280;391;51.052;6.954;2023-05-24T01:29:25;101657.06;;;12.42;59.98
818;BME280;391;51.052;6.954;2023-05-24T01:31:33;101653.53;;;12.40;59.82
818;BME280;391;51.052;6.954;2023-05-24T01:33:40;101661.91;;;12.32;59.85
818;BME280;391;51.052;6.954;2023-05-24T01:35:44;101652.00;;;12.23;60.12
818;BME280;391;51.052;6.954;2023-05-24T01:37:47;101656.41;;;12.24;60.13
818;BME280;391;51.052;6.954;2023-05-24T01:39:51;101651.19;;;12.24;60.21
818;BME280;391;51.052;6.954;2023-05-24T01:42:04;101641.41;;;12.18;60.27
818;BME280;391;51.052;6.954;2023-05-24T01:44:17;101655.75;;;12.30;60.21
818;BME280;391;51.052;6.954;2023-05-24T01:46:34;101655.84;;;12.33;60.35
818;BME280;391;51.052;6.954;2023-05-24T01:48:45;101648.28;;;12.40;60.13
818;BME280;391;51.052;6.954;2023-05-24T01:50:57;101641.22;;;12.38;60.24
818;BME280;391;51.052;6.954;2023-05-24T01:53:03;101650.91;;;12.40;60.25
818;BME280;391;51.052;6.954;2023-05-24T01:55:09;101624.94;;;12.21;59.94
818;BME280;391;51.052;6.954;2023-05-24T01:57:14;101645.78;;;12.43;60.02
818;BME280;391;51.052;6.954;2023-05-24T01:59:23;101634.31;;;12.40;60.17
818;BME280;391;51.052;6.954;2023-05-24T02:01:28;101636.00;;;12.38;60.03
818;BME280;391;51.052;6.954;2023-05-24T02:03:33;101636.88;;;12.38;59.89
818;BME280;391;51.052;6.954;2023-05-24T02:05:39;101640.25;;;12.36;60.10
818;BME280;391;51.052;6.954;2023-05-24T02:07:42;101647.22;;;12.35;59.91
818;BME280;391;51.052;6.954;2023-05-24T02:09:46;101644.66;;;12.37;60.40
818;BME280;391;51.052;6.954;2023-05-24T02:11:49;101640.34;;;12.37;60.22
818;BME280;391;51.052;6.954;2023-05-24T02:13:53;101634.88;;;12.31;60.30
818;BME280;391;51.052;6.954;2023-05-24T02:15:58;101639.25;;;12.32;60.29
818;BME280;391;51.052;6.954;2023-05-24T02:18:01;101633.78;;;12.25;60.47
818;BME280;391;51.052;6.954;2023-05-24T02:20:06;101639.84;;;12.24;60.71
818;BME280;391;51.052;6.954;2023-05-24T02:22:10;101649.50;;;12.26;60.64
818;BME280;391;51.052;6.954;2023-05-24T02:24:14;101651.28;;;12.27;60.60
818;BME280;391;51.052;6.954;2023-05-24T02:26:19;101636.22;;;12.20;60.88
818;BME280;391;51.052;6.954;2023-05-24T02:28:23;101627.44;;;12.18;60.83
818;BME280;391;51.052;6.954;2023-05-24T02:30:26;101597.16;;;12.01;60.99
818;BME280;391;51.052;6.954;2023-05-24T02:32:31;101643.44;;;12.27;61.30
818;BME280;391;51.052;6.954;2023-05-24T02:34:36;101648.59;;;12.26;61.15
818;BME280;391;51.052;6.954;2023-05-24T02:36:40;101639.03;;;12.26;61.13
818;BME280;391;51.052;6.954;2023-05-24T02:38:43;101638.16;;;12.26;61.32
818;BME280;391;51.052;6.954;2023-05-24T02:40:47;101629.25;;;12.20;61.30
818;BME280;391;51.052;6.954;2023-05-24T02:42:51;101627.31;;;12.15;61.27
818;BME280;391;51.052;6.954;2023-05-24T02:44:55;101629.97;;;12.16;61.24
818;BME280;391;51.052;6.954;2023-05-24T02:46:59;101620.13;;;12.09;61.23
818;BME280;391;51.052;6.954;2023-05-24T02:49:04;101635.19;;;12.16;61.31
818;BME280;391;51.052;6.954;2023-05-24T02:51:07;101626.25;;;12.10;61.28
818;BME280;391;51.052;6.954;2023-05-24T02:53:11;101633.03;;;12.05;61.39
818;BME280;391;51.052;6.954;2023-05-24T02:55:14;101633.72;;;11.99;61.56
818;BME280;391;51.052;6.954;2023-05-24T02:57:18;101626.63;;;11.97;61.65
818;BME280;391;51.052;6.954;2023-05-24T02:59:22;101623.91;;;11.94;61.84
818;BME280;391;51.052;6.954;2023-05-24T03:01:25;101626.63;;;11.97;61.74
818;BME280;391;51.052;6.954;2023-05-24T03:03:31;101616.84;;;11.91;62.07
818;BME280;391;51.052;6.954;2023-05-24T03:05:37;101631.84;;;11.97;62.15
818;BME280;391;51.052;6.954;2023-05-24T03:07:40;101634.22;;;11.91;62.29
818;BME280;391;51.052;6.954;2023-05-24T03:09:44;101610.50;;;11.85;62.38
818;BME280;391;51.052;6.954;2023-05-24T03:11:47;101583.47;;;11.62;62.30
818;BME280;391;51.052;6.954;2023-05-24T03:13:51;101578.91;;;11.56;62.56
818;BME280;391;51.052;6.954;2023-05-24T03:15:55;101623.41;;;11.80;62.59
818;BME280;391;51.052;6.954;2023-05-24T03:17:58;101632.38;;;11.87;62.70
818;BME280;391;51.052;6.954;2023-05-24T03:20:03;101631.97;;;11.78;62.70
818;BME280;391;51.052;6.954;2023-05-24T03:22:09;101618.66;;;11.70;62.73
818;BME280;391;51.052;6.954;2023-05-24T03:24:13;101625.63;;;11.71;62.73
818;BME280;391;51.052;6.954;2023-05-24T03:26:16;101615.88;;;11.67;62.77
818;BME280;391;51.052;6.954;2023-05-24T03:28:21;101618.31;;;11.62;62.80
818;BME280;391;51.052;6.954;2023-05-24T03:30:25;101622.72;;;11.63;63.43
818;BME280;391;51.052;6.954;2023-05-24T03:32:31;101611.44;;;11.64;63.35
818;BME280;391;51.052;6.954;2023-05-24T03:34:35;101612.19;;;11.62;63.32
818;BME280;391;51.052;6.954;2023-05-24T03:36:38;101622.16;;;11.71;63.36
818;BME280;391;51.052;6.954;2023-05-24T03:38:43;101620.25;;;11.68;63.11
818;BME280;391;51.052;6.954;2023-05-24T03:40:47;101614.09;;;11.66;63.05
818;BME280;391;51.052;6.954;2023-05-24T03:42:52;101626.53;;;11.72;63.39
818;BME280;391;51.052;6.954;2023-05-24T03:45:06;101631.81;;;11.73;63.12
818;BME280;391;51.052;6.954;2023-05-24T03:47:11;101627.50;;;11.74;63.33
818;BME280;391;51.052;6.954;2023-05-24T03:49:15;101617.53;;;11.65;63.13
818;BME280;391;51.052;6.954;2023-05-24T03:51:19;101615.53;;;11.58;63.05
818;BME280;391;51.052;6.954;2023-05-24T03:53:24;101616.16;;;11.52;63.50
818;BME280;391;51.052;6.954;2023-05-24T03:55:30;101624.00;;;11.52;63.72
818;BME280;391;51.052;6.954;2023-05-24T03:57:34;101626.44;;;11.48;63.95
818;BME280;391;51.052;6.954;2023-05-24T03:59:37;101632.38;;;11.44;63.91
818;BME280;391;51.052;6.954;2023-05-24T04:01:42;101621.56;;;11.35;64.31
818;BME280;391;51.052;6.954;2023-05-24T04:03:46;101642.75;;;11.42;63.82
818;BME280;391;51.052;6.954;2023-05-24T04:05:49;101640.78;;;11.37;64.78
818;BME280;391;51.052;6.954;2023-05-24T04:07:53;101635.53;;;11.35;64.77
818;BME280;391;51.052;6.954;2023-05-24T04:09:57;101456.13;;;10.23;64.49
818;BME280;391;51.052;6.954;2023-05-24T04:12:02;101636.13;;;11.30;64.63
818;BME280;391;51.052;6.954;2023-05-24T04:14:06;101606.97;;;10.97;64.65
818;BME280;391;51.052;6.954;2023-05-24T04:16:10;101650.66;;;11.23;64.76
818;BME280;391;51.052;6.954;2023-05-24T04:18:15;101650.88;;;11.28;64.98
818;BME280;391;51.052;6.954;2023-05-24T04:20:24;101653.75;;;11.13;65.14
818;BME280;391;51.052;6.954;2023-05-24T04:22:29;101649.09;;;10.85;65.35
818;BME280;391;51.052;6.954;2023-05-24T04:24:32;101641.56;;;10.51;65.54
818;BME280;391;51.052;6.954;2023-05-24T04:26:38;101653.34;;;10.43;66.48
818;BME280;391;51.052;6.954;2023-05-24T04:28:43;101657.44;;;10.37;66.86
818;BME280;391;51.052;6.954;2023-05-24T04:30:50;101618.91;;;10.12;67.02
818;BME280;391;51.052;6.954;2023-05-24T04:32:53;101662.00;;;10.42;67.26
818;BME280;391;51.052;6.954;2023-05-24T04:34:57;101659.13;;;10.36;67.65
818;BME280;391;51.052;6.954;2023-05-24T04:37:01;101662.34;;;10.31;67.26
818;BME280;391;51.052;6.954;2023-05-24T04:39:05;101659.50;;;10.07;67.97
818;BME280;391;51.052;6.954;2023-05-24T04:41:09;101513.19;;;9.03;68.78
818;BME280;391;51.052;6.954;2023-05-24T04:43:12;101658.34;;;9.83;69.31
818;BME280;391;51.052;6.954;2023-05-24T04:45:17;101655.94;;;9.86;69.62
818;BME280;391;51.052;6.954;2023-05-24T04:47:20;101671.63;;;10.06;69.76
818;BME280;391;51.052;6.954;2023-05-24T04:49:24;101636.94;;;9.88;69.91
818;BME280;391;51.052;6.954;2023-05-24T04:51:28;101662.66;;;10.00;70.10
818;BME280;391;51.052;6.954;2023-05-24T04:53:32;101662.38;;;10.13;70.14
818;BME280;391;51.052;6.954;2023-05-24T04:55:35;101671.19;;;10.34;70.42
818;BME280;391;51.052;6.954;2023-05-24T04:57:39;101653.22;;;10.21;69.86
818;BME280;391;51.052;6.954;2023-05-24T04:59:43;101669.63;;;10.19;70.17
818;BME280;391;51.052;6.954;2023-05-24T05:01:48;101692.63;;;10.27;70.67
818;BME280;391;51.052;6.954;2023-05-24T05:03:52;101685.78;;;10.31;70.51
818;BME280;391;51.052;6.954;2023-05-24T05:05:55;101684.03;;;10.30;71.32
818;BME280;391;51.052;6.954;2023-05-24T05:07:59;101687.84;;;10.57;71.12
818;BME280;391;51.052;6.954;2023-05-24T05:10:02;101693.03;;;10.76;70.55
818;BME280;391;51.052;6.954;2023-05-24T05:12:07;101699.22;;;10.97;69.78
818;BME280;391;51.052;6.954;2023-05-24T05:14:10;101687.22;;;11.02;69.79
818;BME280;391;51.052;6.954;2023-05-24T05:16:13;101702.38;;;11.11;69.54
818;BME280;391;51.052;6.954;2023-05-24T05:18:18;101702.81;;;11.22;69.18
818;BME280;391;51.052;6.954;2023-05-24T05:20:23;101666.44;;;11.04;69.30
818;BME280;391;51.052;6.954;2023-05-24T05:22:27;101708.09;;;11.23;69.34
818;BME280;391;51.052;6.954;2023-05-24T05:24:32;101712.25;;;11.39;69.01
818;BME280;391;51.052;6.954;2023-05-24T05:26:35;101575.94;;;10.61;68.98
818;BME280;391;51.052;6.954;2023-05-24T05:28:39;101708.31;;;11.48;68.50
818;BME280;391;51.052;6.954;2023-05-24T05:30:42;101712.75;;;11.51;68.63
818;BME280;391;51.052;6.954;2023-05-24T05:32:46;101707.56;;;11.52;68.29
818;BME280;391;51.052;6.954;2023-05-24T05:34:51;101715.28;;;11.49;68.59
818;BME280;391;51.052;6.954;2023-05-24T05:36:55;101692.34;;;11.63;68.33
818;BME280;391;51.052;6.954;2023-05-24T05:38:58;101704.19;;;11.76;68.31
818;BME280;391;51.052;6.954;2023-05-24T05:41:01;101693.13;;;11.60;68.16
818;BME280;391;51.052;6.954;2023-05-24T05:43:05;101703.63;;;11.62;68.12
818;BME280;391;51.052;6.954;2023-05-24T05:45:10;101703.81;;;11.66;68.05
818;BME280;391;51.052;6.954;2023-05-24T05:47:14;101689.84;;;11.66;67.91
818;BME280;391;51.052;6.954;2023-05-24T05:49:17;101682.28;;;11.72;67.84
818;BME280;391;51.052;6.954;2023-05-24T05:51:22;101688.53;;;11.76;68.08
818;BME280;391;51.052;6.954;2023-05-24T05:53:25;101691.38;;;11.82;67.99
818;BME280;391;51.052;6.954;2023-05-24T05:55:32;101693.16;;;11.83;68.07
818;BME280;391;51.052;6.954;2023-05-24T05:57:35;101691.84;;;11.72;67.96
818;BME280;391;51.052;6.954;2023-05-24T05:59:39;101700.66;;;11.74;68.26
818;BME280;391;51.052;6.954;2023-05-24T06:01:43;101687.03;;;11.82;68.40
818;BME280;391;51.052;6.954;2023-05-24T06:03:49;101652.59;;;11.70;68.10
818;BME280;391;51.052;6.954;2023-05-24T06:05:53;101694.94;;;12.06;68.00
818;BME280;391;51.052;6.954;2023-05-24T06:07:58;101687.47;;;11.93;67.96
818;BME280;391;51.052;6.954;2023-05-24T06:10:02;101691.84;;;11.94;68.13
818;BME280;391;51.052;6.954;2023-05-24T06:12:05;101698.53;;;12.09;68.20
818;BME280;391;51.052;6.954;2023-05-24T06:14:09;101682.66;;;12.27;68.04
818;BME280;391;51.052;6.954;2023-05-24T06:16:13;101679.94;;;12.24;67.32
818;BME280;391;51.052;6.954;2023-05-24T06:18:17;101682.94;;;12.11;67.85
818;BME280;391;51.052;6.954;2023-05-24T06:20:23;101675.09;;;12.11;67.82
818;BME280;391;51.052;6.954;2023-05-24T06:22:27;101683.16;;;12.17;67.36
818;BME280;391;51.052;6.954;2023-05-24T06:24:32;101686.59;;;12.16;67.56
818;BME280;391;51.052;6.954;2023-05-24T06:26:36;101676.44;;;12.24;67.48
818;BME280;391;51.052;6.954;2023-05-24T06:28:39;101678.78;;;12.40;66.94
818;BME280;391;51.052;6.954;2023-05-24T06:30:43;101680.69;;;12.44;66.94
818;BME280;391;51.052;6.954;2023-05-24T06:32:47;101689.09;;;12.84;71.39
818;BME280;391;51.052;6.954;2023-05-24T06:34:51;101677.63;;;13.31;70.43
818;BME280;391;51.052;6.954;2023-05-24T06:36:54;101673.63;;;13.15;68.93
818;BME280;391;51.052;6.954;2023-05-24T06:38:59;101691.81;;;13.11;68.98
818;BME280;391;51.052;6.954;2023-05-24T06:41:04;101689.91;;;13.32;69.15
818;BME280;391;51.052;6.954;2023-05-24T06:43:10;101696.03;;;13.33;68.00
818;BME280;391;51.052;6.954;2023-05-24T06:45:15;101703.44;;;13.19;67.32
818;BME280;391;51.052;6.954;2023-05-24T06:47:20;101690.72;;;13.06;66.75
818;BME280;391;51.052;6.954;2023-05-24T06:49:24;101702.91;;;13.05;67.02
818;BME280;391;51.052;6.954;2023-05-24T06:51:28;101715.56;;;12.92;66.51
818;BME280;391;51.052;6.954;2023-05-24T06:53:31;101719.00;;;12.91;66.58
818;BME280;391;51.052;6.954;2023-05-24T06:55:35;101715.38;;;12.87;66.39
818;BME280;391;51.052;6.954;2023-05-24T06:57:40;101710.97;;;12.86;66.44
818;BME280;391;51.052;6.954;2023-05-24T06:59:45;101704.63;;;12.80;66.15
818;BME280;391;51.052;6.954;2023-05-24T07:01:49;101706.53;;;12.84;66.47
818;BME280;391;51.052;6.954;2023-05-24T07:04:01;101704.50;;;12.75;65.77
818;BME280;391;51.052;6.954;2023-05-24T07:06:04;101705.19;;;12.71;66.13
818;BME280;391;51.052;6.954;2023-05-24T07:08:11;101697.41;;;12.72;66.20
818;BME280;391;51.052;6.954;2023-05-24T07:10:14;101702.00;;;12.80;66.02
818;BME280;391;51.052;6.954;2023-05-24T07:12:18;101712.47;;;12.80;65.75
818;BME280;391;51.052;6.954;2023-05-24T07:14:23;101704.63;;;12.80;65.64
818;BME280;391;51.052;6.954;2023-05-24T07:16:27;101711.94;;;12.88;65.57
818;BME280;391;51.052;6.954;2023-05-24T07:18:31;101704.88;;;12.86;65.49
818;BME280;391;51.052;6.954;2023-05-24T07:20:37;101709.84;;;13.03;65.46
818;BME280;391;51.052;6.954;2023-05-24T07:22:41;101701.81;;;13.22;65.05
818;BME280;391;51.052;6.954;2023-05-24T07:24:45;101709.97;;;13.32;64.67
818;BME280;391;51.052;6.954;2023-05-24T07:26:48;101711.88;;;13.37;64.47
818;BME280;391;51.052;6.954;2023-05-24T07:28:52;101717.56;;;13.49;64.04
818;BME280;391;51.052;6.954;2023-05-24T07:30:57;101726.25;;;13.48;63.36
818;BME280;391;51.052;6.954;2023-05-24T07:33:00;101728.41;;;13.35;62.56
818;BME280;391;51.052;6.954;2023-05-24T07:35:05;101731.13;;;13.38;62.65
818;BME280;391;51.052;6.954;2023-05-24T07:37:08;101722.13;;;13.30;62.42
818;BME280;391;51.052;6.954;2023-05-24T07:39:13;101725.31;;;13.21;62.42
818;BME280;391;51.052;6.954;2023-05-24T07:41:18;101744.88;;;13.07;62.43
818;BME280;391;51.052;6.954;2023-05-24T07:43:21;101725.47;;;13.02;62.28
818;BME280;391;51.052;6.954;2023-05-24T07:45:25;101726.06;;;12.93;62.56
818;BME280;391;51.052;6.954;2023-05-24T07:47:30;101679.94;;;12.71;62.28
818;BME280;391;51.052;6.954;2023-05-24T07:49:33;101727.34;;;13.04;62.16
818;BME280;391;51.052;6.954;2023-05-24T07:51:37;101724.38;;;13.19;62.15
818;BME280;391;51.052;6.954;2023-05-24T07:53:41;101715.91;;;13.26;61.76
818;BME280;391;51.052;6.954;2023-05-24T07:55:45;101724.84;;;13.33;61.44
818;BME280;391;51.052;6.954;2023-05-24T07:57:48;101718.22;;;13.44;61.29
818;BME280;391;51.052;6.954;2023-05-24T07:59:52;101719.56;;;13.58;60.70
818;BME280;391;51.052;6.954;2023-05-24T08:01:55;101684.31;;;13.48;60.41
818;BME280;391;51.052;6.954;2023-05-24T08:04:04;101718.38;;;13.75;59.67
818;BME280;391;51.052;6.954;2023-05-24T08:06:10;101727.22;;;13.78;58.49
818;BME280;391;51.052;6.954;2023-05-24T08:08:14;101718.88;;;13.92;58.14
818;BME280;391;51.052;6.954;2023-05-24T08:10:18;101714.78;;;14.00;57.79
818;BME280;391;51.052;6.954;2023-05-24T08:12:22;101723.66;;;14.05;57.58
818;BME280;391;51.052;6.954;2023-05-24T08:14:27;101721.16;;;14.08;57.24
818;BME280;391;51.052;6.954;2023-05-24T08:16:30;101719.38;;;14.07;56.87
818;BME280;391;51.052;6.954;2023-05-24T08:18:34;101731.50;;;14.03;56.97
818;BME280;391;51.052;6.954;2023-05-24T08:20:38;101724.56;;;14.05;57.23
818;BME280;391;51.052;6.954;2023-05-24T08:22:42;101727.81;;;13.97;57.42
818;BME280;391;51.052;6.954;2023-05-24T08:24:46;101732.44;;;14.05;57.91
818;BME280;391;51.052;6.954;2023-05-24T08:26:49;101726.19;;;14.02;57.59
818;BME280;391;51.052;6.954;2023-05-24T08:28:54;101710.38;;;13.99;57.62
818;BME280;391;51.052;6.954;2023-05-24T08:30:57;101725.00;;;14.19;57.26
818;BME280;391;51.052;6.954;2023-05-24T08:33:01;101724.19;;;14.21;56.61
818;BME280;391;51.052;6.954;2023-05-24T08:35:05;101726.16;;;14.28;56.40
818;BME280;391;51.052;6.954;2023-05-24T08:37:23;101728.09;;;14.34;56.17
818;BME280;391;51.052;6.954;2023-05-24T08:39:26;101747.78;;;14.21;55.55
818;BME280;391;51.052;6.954;2023-05-24T08:41:30;101696.28;;;13.95;55.15
818;BME280;391;51.052;6.954;2023-05-24T08:43:38;101732.69;;;14.13;55.25
818;BME280;391;51.052;6.954;2023-05-24T08:45:42;101729.44;;;14.21;55.39
818;BME280;391;51.052;6.954;2023-05-24T08:47:47;101723.38;;;14.24;55.37
818;BME280;391;51.052;6.954;2023-05-24T08:49:52;101728.81;;;14.30;55.29
818;BME280;391;51.052;6.954;2023-05-24T08:51:56;101719.28;;;14.04;55.96
818;BME280;391;51.052;6.954;2023-05-24T08:54:02;101725.72;;;14.13;56.16
818;BME280;391;51.052;6.954;2023-05-24T08:56:07;101708.34;;;14.18;55.63
818;BME280;391;51.052;6.954;2023-05-24T08:58:12;101718.19;;;14.25;56.03
818;BME280;391;51.052;6.954;2023-05-24T09:00:16;101711.88;;;14.19;55.82
818;BME280;391;51.052;6.954;2023-05-24T09:02:21;101714.31;;;14.13;56.03
818;BME280;391;51.052;6.954;2023-05-24T09:04:26;101720.69;;;13.93;56.64
818;BME280;391;51.052;6.954;2023-05-24T09:06:30;101710.53;;;14.03;56.83
818;BME280;391;51.052;6.954;2023-05-24T09:08:34;101688.59;;;14.01;57.11
818;BME280;391;51.052;6.954;2023-05-24T09:10:40;101714.44;;;14.17;57.00
818;BME280;391;51.052;6.954;2023-05-24T09:12:57;101712.88;;;14.24;57.03
818;BME280;391;51.052;6.954;2023-05-24T09:15:01;101647.09;;;13.87;56.70
818;BME280;391;51.052;6.954;2023-05-24T09:17:04;101713.25;;;14.35;56.06
818;BME280;391;51.052;6.954;2023-05-24T09:19:08;101714.16;;;14.35;55.64
818;BME280;391;51.052;6.954;2023-05-24T09:21:12;101709.16;;;14.44;55.52
818;BME280;391;51.052;6.954;2023-05-24T09:23:16;101708.31;;;14.45;55.32
818;BME280;391;51.052;6.954;2023-05-24T09:25:19;101713.50;;;14.44;55.45
818;BME280;391;51.052;6.954;2023-05-24T09:27:25;101702.38;;;14.52;55.56
818;BME280;391;51.052;6.954;2023-05-24T09:29:28;101706.28;;;14.66;55.55
818;BME280;391;51.052;6.954;2023-05-24T09:31:32;101708.28;;;14.75;55.26
818;BME280;391;51.052;6.954;2023-05-24T09:33:38;101697.97;;;14.82;54.88
818;BME280;391;51.052;6.954;2023-05-24T09:35:42;101698.09;;;14.87;54.01
818;BME280;391;51.052;6.954;2023-05-24T09:37:45;101701.53;;;14.84;53.70
818;BME280;391;51.052;6.954;2023-05-24T09:39:49;101710.34;;;14.87;53.63
818;BME280;391;51.052;6.954;2023-05-24T09:41:53;101704.06;;;14.81;54.16
818;BME280;391;51.052;6.954;2023-05-24T09:44:00;101705.81;;;14.81;53.96
818;BME280;391;51.052;6.954;2023-05-24T09:46:04;101700.38;;;14.75;54.38
818;BME280;391;51.052;6.954;2023-05-24T09:48:09;101703.91;;;14.75;54.44
818;BME280;391;51.052;6.954;2023-05-24T09:50:15;101713.25;;;14.64;54.30
818;BME280;391;51.052;6.954;2023-05-24T09:52:20;101712.53;;;14.71;54.63
818;BME280;391;51.052;6.954;2023-05-24T09:54:24;101705.94;;;14.86;54.45
818;BME280;391;51.052;6.954;2023-05-24T09:56:28;101680.44;;;14.81;54.45
818;BME280;391;51.052;6.954;2023-05-24T09:58:32;101680.50;;;14.83;53.74
818;BME280;391;51.052;6.954;2023-05-24T10:00:39;101691.47;;;15.01;54.05
818;BME280;391;51.052;6.954;2023-05-24T10:02:44;101683.06;;;15.14;54.03
818;BME280;391;51.052;6.954;2023-05-24T10:04:58;101688.53;;;15.23;53.50
818;BME280;391;51.052;6.954;2023-05-24T10:07:02;101611.50;;;14.89;53.03
818;BME280;391;51.052;6.954;2023-05-24T10:09:07;101681.72;;;15.30;52.13
818;BME280;391;51.052;6.954;2023-05-24T10:11:11;101680.03;;;15.33;51.83
818;BME280;391;51.052;6.954;2023-05-24T10:13:14;101681.00;;;15.37;51.79
818;BME280;391;51.052;6.954;2023-05-24T10:15:19;101675.00;;;15.41;51.57
818;BME280;391;51.052;6.954;2023-05-24T10:17:24;101664.47;;;15.41;51.31
818;BME280;391;51.052;6.954;2023-05-24T10:19:29;101680.13;;;15.36;51.55
818;BME280;391;51.052;6.954;2023-05-24T10:21:35;101687.16;;;15.38;51.24
818;BME280;391;51.052;6.954;2023-05-24T10:23:42;101685.56;;;15.44;51.19
818;BME280;391;51.052;6.954;2023-05-24T10:25:49;101680.50;;;15.50;51.22
818;BME280;391;51.052;6.954;2023-05-24T10:28:11;101688.53;;;15.56;51.08
818;BME280;391;51.052;6.954;2023-05-24T10:30:19;101693.84;;;15.59;50.36
818;BME280;391;51.052;6.954;2023-05-24T10:32:31;101683.22;;;15.55;50.75
818;BME280;391;51.052;6.954;2023-05-24T10:34:37;101697.03;;;15.82;51.19
818;BME280;391;51.052;6.954;2023-05-24T10:36:43;101691.84;;;15.86;51.42
818;BME280;391;51.052;6.954;2023-05-24T10:38:47;101695.09;;;15.75;50.20
818;BME280;391;51.052;6.954;2023-05-24T10:40:50;101665.56;;;15.49;50.58
818;BME280;391;51.052;6.954;2023-05-24T10:42:54;101693.38;;;15.75;50.86
818;BME280;391;51.052;6.954;2023-05-24T10:44:58;101693.16;;;15.68;50.52
818;BME280;391;51.052;6.954;2023-05-24T10:47:08;101694.34;;;15.80;50.58
818;BME280;391;51.052;6.954;2023-05-24T10:49:13;101694.59;;;15.91;50.45
818;BME280;391;51.052;6.954;2023-05-24T10:51:29;101690.44;;;16.02;49.81
818;BME280;391;51.052;6.954;2023-05-24T10:53:37;101657.72;;;15.89;50.41
818;BME280;391;51.052;6.954;2023-05-24T10:55:52;101687.03;;;16.06;50.28
818;BME280;391;51.052;6.954;2023-05-24T10:57:56;101686.78;;;15.94;50.55
818;BME280;391;51.052;6.954;2023-05-24T11:00:24;101681.59;;;15.99;50.28
818;BME280;391;51.052;6.954;2023-05-24T11:02:33;101687.03;;;16.06;50.91
818;BME280;391;51.052;6.954;2023-05-24T11:04:40;101685.69;;;16.25;51.19
818;BME280;391;51.052;6.954;2023-05-24T11:06:46;101653.19;;;16.23;50.75
818;BME280;391;51.052;6.954;2023-05-24T11:08:50;101687.31;;;16.60;51.15
818;BME280;391;51.052;6.954;2023-05-24T11:11:02;101674.31;;;16.68;50.87
818;BME280;391;51.052;6.954;2023-05-24T11:13:26;101639.38;;;16.33;50.37
818;BME280;391;51.052;6.954;2023-05-24T11:15:29;101683.63;;;16.54;50.03
818;BME280;391;51.052;6.954;2023-05-24T11:20:16;101681.56;;;16.37;51.12
818;BME280;391;51.052;6.954;2023-05-24T11:22:21;101678.72;;;16.27;51.08
818;BME280;391;51.052;6.954;2023-05-24T11:24:26;101681.97;;;16.15;51.25
818;BME280;391;51.052;6.954;2023-05-24T11:26:29;101679.44;;;16.20;51.22
818;BME280;391;51.052;6.954;2023-05-24T11:28:35;101603.97;;;15.75;51.01
818;BME280;391;51.052;6.954;2023-05-24T11:30:39;101677.34;;;16.04;50.72
818;BME280;391;51.052;6.954;2023-05-24T11:32:46;101673.44;;;15.86;50.81